createdAt,value
2023-02-02T00:02:48.674Z,94.90
2023-02-02T00:05:54.386Z,94.90
2023-02-02T00:08:58.265Z,94.80
2023-02-02T00:12:01.520Z,94.90
2023-02-02T00:15:04.145Z,95.20
2023-02-02T00:18:06.728Z,95.30
2023-02-02T00:21:08.854Z,95.20
2023-02-02T00:24:12.496Z,95.00
2023-02-02T00:27:15.636Z,95.20
2023-02-02T00:30:18.054Z,95.20
2023-02-02T00:33:24.810Z,95.20
2023-02-02T00:36:26.986Z,95.40
2023-02-02T00:39:29.765Z,95.60
2023-02-02T00:42:31.877Z,95.80
2023-02-02T00:45:33.906Z,95.80
2023-02-02T00:48:38.400Z,95.80
2023-02-02T00:51:40.520Z,95.80
2023-02-02T00:54:43.677Z,95.70
2023-02-02T00:57:46.293Z,95.90
2023-02-02T01:00:48.301Z,95.60
2023-02-02T01:03:51.124Z,95.70
2023-02-02T01:06:53.210Z,95.70
2023-02-02T01:09:55.367Z,95.80
2023-02-02T01:12:57.412Z,95.90
2023-02-02T01:16:01.175Z,95.50
2023-02-02T01:19:03.312Z,95.80
2023-02-02T01:22:05.539Z,95.60
2023-02-02T01:25:07.839Z,95.70
2023-02-02T01:28:16.868Z,95.70
2023-02-02T01:31:20.151Z,95.80
2023-02-02T01:34:22.323Z,95.80
2023-02-02T01:37:24.392Z,96.10
2023-02-02T01:40:26.552Z,96.10
2023-02-02T01:43:44.719Z,96.10
2023-02-02T01:46:46.938Z,96.00
2023-02-02T01:49:50.943Z,96.30
2023-02-02T01:52:55.507Z,96.10
2023-02-02T01:55:57.653Z,96.30
2023-02-02T01:59:00.973Z,96.90
2023-02-02T02:02:03.621Z,96.50
2023-02-02T02:05:07.858Z,96.70
2023-02-02T02:08:19.662Z,97.10
2023-02-02T02:11:23.707Z,97.40
2023-02-02T02:14:44.385Z,97.50
2023-02-02T02:18:15.639Z,97.80
2023-02-02T02:21:57.088Z,97.90
2023-02-02T02:25:48.940Z,97.60
2023-02-02T02:29:12.489Z,97.80
2023-02-02T02:32:27.698Z,97.30
2023-02-02T02:35:35.535Z,97.60
2023-02-02T02:39:17.644Z,97.40
2023-02-02T02:42:24.361Z,97.50
2023-02-02T02:45:29.190Z,97.70
2023-02-02T02:48:31.227Z,97.80
2023-02-02T02:52:01.931Z,98.20
2023-02-02T02:55:05.565Z,98.80
2023-02-02T02:58:14.132Z,99.30
2023-02-02T03:01:26.068Z,99.50
2023-02-02T03:04:51.794Z,99.60
2023-02-02T03:07:57.187Z,99.50
2023-02-02T03:11:02.424Z,99.70
2023-02-02T03:14:09.704Z,99.80
2023-02-02T03:17:11.823Z,99.80
2023-02-02T03:20:15.221Z,99.60
2023-02-02T03:23:17.231Z,99.40
2023-02-02T03:26:19.481Z,99.40
2023-02-02T03:29:21.712Z,99.30
2023-02-02T03:32:23.908Z,99.50
2023-02-02T03:35:26.608Z,99.40
2023-02-02T03:38:30.537Z,99.20
2023-02-02T03:41:32.640Z,99.10
2023-02-02T03:44:34.870Z,99.00
2023-02-02T03:47:36.962Z,99.00
2023-02-02T03:50:39.140Z,99.00
2023-02-02T03:53:47.641Z,99.00
2023-02-02T03:56:49.771Z,99.20
2023-02-02T03:59:52.066Z,99.40
2023-02-02T04:02:55.060Z,99.30
2023-02-02T04:05:57.138Z,99.20
2023-02-02T04:09:00.116Z,99.50
2023-02-02T04:12:02.645Z,99.10
2023-02-02T04:15:05.276Z,99.20
2023-02-02T04:18:07.353Z,99.00
2023-02-02T04:21:09.638Z,98.80
2023-02-02T04:24:12.940Z,98.80
2023-02-02T04:27:19.284Z,98.70
2023-02-02T04:30:21.407Z,98.50
2023-02-02T04:33:25.028Z,98.60
2023-02-02T04:36:27.347Z,98.50
2023-02-02T04:39:31.292Z,98.40
2023-02-02T04:42:35.105Z,98.50
2023-02-02T04:45:37.811Z,98.20
2023-02-02T04:48:41.504Z,98.20
2023-02-02T04:51:44.220Z,98.30
2023-02-02T04:54:46.229Z,98.10
2023-02-02T04:57:48.426Z,98.20
2023-02-02T05:00:50.649Z,98.10
2023-02-02T05:03:53.306Z,98.00
2023-02-02T05:06:55.592Z,98.10
2023-02-02T05:09:58.612Z,98.40
2023-02-02T05:13:00.638Z,97.90
2023-02-02T05:16:03.690Z,97.80
2023-02-02T05:19:06.378Z,97.90
2023-02-02T05:22:08.685Z,98.00
2023-02-02T05:25:10.960Z,97.90
2023-02-02T05:28:13.114Z,97.70
2023-02-02T05:31:15.482Z,97.70
2023-02-02T05:34:17.727Z,97.60
2023-02-02T05:37:20.735Z,97.50
2023-02-02T05:40:23.817Z,97.40
2023-02-02T05:43:27.717Z,98.00
2023-02-02T05:46:30.364Z,97.90
2023-02-02T05:49:32.371Z,97.70
2023-02-02T05:52:35.790Z,97.70
2023-02-02T05:55:37.830Z,97.60
2023-02-02T05:58:39.835Z,97.80
2023-02-02T06:01:41.849Z,97.80
2023-02-02T06:04:44.237Z,97.80
2023-02-02T06:07:46.260Z,97.90
2023-02-02T06:10:48.382Z,98.40
2023-02-02T06:13:50.719Z,99.20
2023-02-02T06:16:52.833Z,99.90
2023-02-02T06:19:55.019Z,99.90
2023-02-02T06:22:57.029Z,99.90
2023-02-02T06:25:59.749Z,99.90
2023-02-02T06:29:03.108Z,99.90
2023-02-02T06:32:05.200Z,99.90
2023-02-02T06:35:08.162Z,99.90
2023-02-02T06:38:11.478Z,99.90
2023-02-02T06:41:13.533Z,99.90
2023-02-02T06:44:15.700Z,99.90
2023-02-02T06:47:17.712Z,99.90
2023-02-02T06:50:20.213Z,99.90
2023-02-02T06:53:25.942Z,99.90
2023-02-02T06:56:28.120Z,99.90
2023-02-02T06:59:30.138Z,99.90
2023-02-02T07:02:32.522Z,99.90
2023-02-02T07:05:34.519Z,99.90
2023-02-02T07:08:36.589Z,99.90
2023-02-02T07:11:39.530Z,99.90
2023-02-02T07:14:47.641Z,99.90
2023-02-02T07:17:49.686Z,99.90
2023-02-02T07:20:51.817Z,99.90
2023-02-02T07:23:53.811Z,99.90
2023-02-02T07:26:58.232Z,99.90
2023-02-02T07:30:00.590Z,99.90
2023-02-02T07:33:02.704Z,99.90
2023-02-02T07:36:04.897Z,99.90
2023-02-02T07:39:12.139Z,99.90
2023-02-02T07:42:14.171Z,99.90
2023-02-02T07:45:24.644Z,99.90
2023-02-02T07:48:30.941Z,99.90
2023-02-02T07:51:32.990Z,99.90
2023-02-02T07:54:36.003Z,99.90
2023-02-02T07:57:38.291Z,99.90
2023-02-02T08:00:40.399Z,99.80
2023-02-02T08:03:45.946Z,99.90
2023-02-02T08:06:48.479Z,99.50
2023-02-02T08:09:51.268Z,99.00
2023-02-02T08:12:53.309Z,96.90
2023-02-02T08:15:58.456Z,95.20
2023-02-02T08:19:02.101Z,92.10
2023-02-02T08:22:04.159Z,91.00
2023-02-02T08:25:06.575Z,88.20
2023-02-02T08:28:09.488Z,85.80
2023-02-02T08:31:23.715Z,82.30
2023-02-02T08:34:27.164Z,78.80
2023-02-02T08:37:29.423Z,76.60
2023-02-02T08:40:31.474Z,75.10
2023-02-02T08:43:34.052Z,72.40
2023-02-02T08:46:36.311Z,72.00
2023-02-02T08:49:38.568Z,72.50
2023-02-02T08:52:40.924Z,69.30
2023-02-02T08:55:42.960Z,72.70
2023-02-02T08:58:55.672Z,71.50
2023-02-02T09:01:58.128Z,70.60
2023-02-02T09:05:00.294Z,69.30
2023-02-02T09:08:02.565Z,67.70
2023-02-02T09:11:10.900Z,66.00
2023-02-02T09:14:13.907Z,66.60
2023-02-02T09:17:15.966Z,64.40
2023-02-02T09:20:20.498Z,63.90
2023-02-02T09:23:22.729Z,61.90
2023-02-02T09:26:29.680Z,61.40
2023-02-02T09:29:31.985Z,60.30
2023-02-02T09:32:34.288Z,60.30
2023-02-02T09:35:36.324Z,58.60
2023-02-02T09:38:39.819Z,55.80
2023-02-02T09:41:41.971Z,53.90
2023-02-02T09:45:01.448Z,51.50
2023-02-02T09:48:23.649Z,49.00
2023-02-02T09:51:30.382Z,49.60
2023-02-02T09:54:56.161Z,48.30
2023-02-02T09:58:12.152Z,47.20
2023-02-02T10:01:14.140Z,45.50
2023-02-02T10:04:26.127Z,43.70
2023-02-02T10:07:39.439Z,42.90
2023-02-02T10:10:43.856Z,43.50
2023-02-02T10:13:48.781Z,40.20
2023-02-02T10:16:54.222Z,40.50
2023-02-02T10:20:02.554Z,38.30
2023-02-02T10:23:29.796Z,38.40
2023-02-02T10:26:40.315Z,40.60
2023-02-02T10:30:04.009Z,42.00
2023-02-02T10:33:11.344Z,41.90
2023-02-02T10:36:28.855Z,41.70
2023-02-02T10:39:48.947Z,41.30
2023-02-02T10:43:40.944Z,41.60
2023-02-02T10:46:55.773Z,40.30
2023-02-02T10:50:12.887Z,40.50
2023-02-02T10:53:16.678Z,40.30
2023-02-02T10:56:26.806Z,39.70
2023-02-02T10:59:35.982Z,40.80
2023-02-02T11:02:38.058Z,39.00
2023-02-02T11:05:58.739Z,38.60
2023-02-02T11:09:01.360Z,37.90
2023-02-02T11:12:10.061Z,37.00
2023-02-02T11:15:31.469Z,36.20
2023-02-02T11:18:34.531Z,35.90
2023-02-02T11:21:38.691Z,37.90
2023-02-02T11:24:48.514Z,37.20
2023-02-02T11:27:50.686Z,36.10
2023-02-02T11:30:53.931Z,37.40
2023-02-02T11:34:18.903Z,37.80
2023-02-02T11:37:22.909Z,38.80
2023-02-02T11:40:52.415Z,39.50
2023-02-02T11:43:55.459Z,39.90
2023-02-02T11:46:58.205Z,39.00
2023-02-02T11:50:03.006Z,39.20
2023-02-02T11:53:06.965Z,41.50
2023-02-02T11:56:25.236Z,41.30
2023-02-02T11:59:30.735Z,42.40
2023-02-02T12:02:34.194Z,43.20
2023-02-02T12:05:37.337Z,45.20
2023-02-02T12:08:39.635Z,47.90
2023-02-02T12:11:59.457Z,51.40
2023-02-02T12:15:04.621Z,56.50
2023-02-02T12:18:06.562Z,60.10
2023-02-02T12:21:35.294Z,61.80
2023-02-02T12:24:49.675Z,64.40
2023-02-02T12:28:16.630Z,67.00
2023-02-02T12:31:33.705Z,67.90
2023-02-02T12:35:21.595Z,69.40
2023-02-02T12:38:57.849Z,70.90
2023-02-02T12:42:02.910Z,71.80
2023-02-02T12:45:05.061Z,73.00
2023-02-02T12:48:29.681Z,74.00
2023-02-02T12:51:48.678Z,74.20
2023-02-02T12:55:08.797Z,74.20
2023-02-02T12:58:16.658Z,74.00
2023-02-02T13:01:33.394Z,74.40
2023-02-02T13:05:07.622Z,74.60
2023-02-02T13:08:14.429Z,75.50
2023-02-02T13:11:30.868Z,76.30
2023-02-02T13:14:42.028Z,76.50
2023-02-02T13:17:57.637Z,77.20
2023-02-02T13:21:03.292Z,75.90
2023-02-02T13:24:08.093Z,76.60
2023-02-02T13:27:16.831Z,76.30
2023-02-02T13:30:35.232Z,75.90
2023-02-02T13:33:38.407Z,78.10
2023-02-02T13:36:44.074Z,79.40
2023-02-02T13:40:05.388Z,79.20
2023-02-02T13:43:29.047Z,79.90
2023-02-02T13:46:36.565Z,77.30
2023-02-02T13:49:46.686Z,77.40
2023-02-02T13:53:21.237Z,74.90
2023-02-02T13:56:48.109Z,75.40
2023-02-02T14:00:12.771Z,76.70
2023-02-02T14:03:40.899Z,76.80
2023-02-02T14:06:59.181Z,76.50
2023-02-02T14:10:01.400Z,77.20
2023-02-02T14:13:08.143Z,74.20
2023-02-02T14:16:44.032Z,75.50
2023-02-02T14:19:56.678Z,76.30
2023-02-02T14:22:58.800Z,75.20
2023-02-02T14:26:11.998Z,76.10
2023-02-02T14:29:32.093Z,75.90
2023-02-02T14:32:42.202Z,75.80
2023-02-02T14:35:44.136Z,75.20
2023-02-02T14:38:55.855Z,75.90
2023-02-02T14:42:44.880Z,75.90
2023-02-02T14:45:49.111Z,76.40
2023-02-02T14:48:54.326Z,76.40
2023-02-02T14:52:01.674Z,76.40
2023-02-02T14:55:04.337Z,77.20
2023-02-02T14:58:07.701Z,77.10
2023-02-02T15:01:32.149Z,75.70
2023-02-02T15:04:34.240Z,75.20
2023-02-02T15:07:38.245Z,74.30
2023-02-02T15:10:55.130Z,74.30
2023-02-02T15:14:07.116Z,74.90
2023-02-02T15:17:27.516Z,76.40
2023-02-02T15:20:44.418Z,74.40
2023-02-02T15:23:47.276Z,74.80
2023-02-02T15:26:51.396Z,73.90
2023-02-02T15:29:58.340Z,73.70
2023-02-02T15:33:05.549Z,73.10
2023-02-02T15:36:12.412Z,72.80
2023-02-02T15:39:29.177Z,75.40
2023-02-02T15:42:53.165Z,75.50
2023-02-02T15:46:02.046Z,74.90
2023-02-02T15:49:35.779Z,74.30
2023-02-02T15:52:50.336Z,74.50
2023-02-02T15:55:53.619Z,73.80
2023-02-02T15:58:58.765Z,73.80
2023-02-02T16:02:07.038Z,73.90
2023-02-02T16:05:36.795Z,73.80
2023-02-02T16:08:41.121Z,73.90
2023-02-02T16:11:57.797Z,73.60
2023-02-02T16:15:00.210Z,73.90
2023-02-02T16:18:05.593Z,73.00
2023-02-02T16:21:15.356Z,72.90
2023-02-02T16:24:28.390Z,73.00
2023-02-02T16:27:31.755Z,73.10
2023-02-02T16:30:38.822Z,73.30
2023-02-02T16:33:45.418Z,73.00
2023-02-02T16:37:13.481Z,73.00
2023-02-02T16:40:29.347Z,73.00
2023-02-02T16:43:31.831Z,72.80
2023-02-02T16:46:44.463Z,73.00
2023-02-02T16:49:46.594Z,72.70
2023-02-02T16:52:59.667Z,73.80
2023-02-02T16:56:03.292Z,73.00
2023-02-02T16:59:23.261Z,72.60
2023-02-02T17:02:38.800Z,72.40
2023-02-02T17:05:51.436Z,72.50
2023-02-02T17:08:53.487Z,72.60
2023-02-02T17:12:32.215Z,72.50
2023-02-02T17:15:36.545Z,72.20
2023-02-02T17:18:38.739Z,73.10
2023-02-02T17:21:41.057Z,73.90
2023-02-02T17:24:46.364Z,74.90
2023-02-02T17:27:49.036Z,75.10
2023-02-02T17:31:09.722Z,76.20
2023-02-02T17:34:16.714Z,75.50
2023-02-02T17:37:21.455Z,75.80
2023-02-02T17:40:24.436Z,75.90
2023-02-02T17:43:27.171Z,76.20
2023-02-02T17:46:31.176Z,76.40
2023-02-02T17:49:33.318Z,76.40
2023-02-02T17:52:37.391Z,76.00
2023-02-02T17:55:42.099Z,76.40
2023-02-02T17:58:44.362Z,76.50
2023-02-02T18:01:46.541Z,77.10
2023-02-02T18:04:48.671Z,77.80
2023-02-02T18:07:50.793Z,77.50
2023-02-02T18:10:53.071Z,77.70
2023-02-02T18:13:55.175Z,77.50
2023-02-02T18:16:57.229Z,77.60
2023-02-02T18:20:00.855Z,77.80
2023-02-02T18:23:03.058Z,78.00
2023-02-02T18:26:19.824Z,77.50
2023-02-02T18:29:21.906Z,77.70
2023-02-02T18:32:24.222Z,77.30
2023-02-02T18:35:27.157Z,77.60
2023-02-02T18:38:29.409Z,78.30
2023-02-02T18:41:31.416Z,78.60
2023-02-02T18:44:35.421Z,79.40
2023-02-02T18:47:38.143Z,79.70
2023-02-02T18:50:41.379Z,80.10
2023-02-02T18:53:44.333Z,80.90
2023-02-02T18:56:46.404Z,82.20
2023-02-02T18:59:48.397Z,82.50
2023-02-02T19:02:50.420Z,83.60
2023-02-02T19:06:11.141Z,83.00
2023-02-02T19:09:17.457Z,83.60
2023-02-02T19:12:19.578Z,83.60
2023-02-02T19:15:22.367Z,83.90
2023-02-02T19:18:24.812Z,83.60
2023-02-02T19:21:30.619Z,84.00
2023-02-02T19:24:39.449Z,84.60
2023-02-02T19:27:41.447Z,84.30
2023-02-02T19:30:45.545Z,84.60
2023-02-02T19:33:52.990Z,84.60
2023-02-02T19:36:55.214Z,85.10
2023-02-02T19:40:09.139Z,85.50
2023-02-02T19:43:13.914Z,86.00
2023-02-02T19:46:22.873Z,85.90
2023-02-02T19:49:35.000Z,86.70
2023-02-02T19:52:37.208Z,86.50
2023-02-02T19:55:41.840Z,87.10
2023-02-02T19:58:43.965Z,87.60
2023-02-02T20:01:47.922Z,88.00
2023-02-02T20:05:00.160Z,88.10
2023-02-02T20:08:05.743Z,87.90
2023-02-02T20:11:35.782Z,89.00
2023-02-02T20:14:38.920Z,88.30
2023-02-02T20:17:41.948Z,89.00
2023-02-02T20:20:46.989Z,88.60
2023-02-02T20:23:49.193Z,88.70
2023-02-02T20:26:53.281Z,88.70
2023-02-02T20:30:01.588Z,89.50
2023-02-02T20:33:23.236Z,89.00
2023-02-02T20:36:28.202Z,89.40
2023-02-02T20:39:30.091Z,89.30
2023-02-02T20:42:32.301Z,88.40
2023-02-02T20:45:34.334Z,89.00
2023-02-02T20:48:36.387Z,89.00
2023-02-02T20:51:40.726Z,89.40
2023-02-02T20:54:42.721Z,89.60
2023-02-02T20:57:44.725Z,89.40
2023-02-02T21:00:46.902Z,89.50
2023-02-02T21:03:49.284Z,90.00
2023-02-02T21:06:51.451Z,89.20
2023-02-02T21:09:53.913Z,88.80
2023-02-02T21:12:56.089Z,88.90
2023-02-02T21:15:58.109Z,88.60
2023-02-02T21:19:00.334Z,89.40
2023-02-02T21:22:02.612Z,89.20
2023-02-02T21:25:04.779Z,89.70
2023-02-02T21:28:06.865Z,89.50
2023-02-02T21:31:10.740Z,89.70
2023-02-02T21:34:12.816Z,89.60
2023-02-02T21:37:16.146Z,90.10
2023-02-02T21:40:29.854Z,90.10
2023-02-02T21:43:33.472Z,90.10
2023-02-02T21:46:38.983Z,90.50
2023-02-02T21:49:41.064Z,90.40
2023-02-02T21:52:43.334Z,90.90
2023-02-02T21:55:49.711Z,91.20
2023-02-02T21:58:51.842Z,91.30
2023-02-02T22:01:54.267Z,91.30
2023-02-02T22:04:59.372Z,91.10
2023-02-02T22:08:07.220Z,91.40
2023-02-02T22:11:55.014Z,91.60
2023-02-02T22:15:01.321Z,91.70
2023-02-02T22:18:13.316Z,91.60
2023-02-02T22:21:19.940Z,91.70
2023-02-02T22:24:22.876Z,91.70
2023-02-02T22:27:33.069Z,91.80
2023-02-02T22:30:40.246Z,92.00
2023-02-02T22:33:42.358Z,92.20
2023-02-02T22:36:44.371Z,92.20
2023-02-02T22:39:46.487Z,92.30
2023-02-02T22:42:56.856Z,91.80
2023-02-02T22:45:58.958Z,92.20
2023-02-02T22:49:00.941Z,92.20
2023-02-02T22:52:03.445Z,91.90
2023-02-02T22:55:05.818Z,91.90
2023-02-02T22:58:07.890Z,92.10
2023-02-02T23:01:11.699Z,92.20
2023-02-02T23:04:13.817Z,92.40
2023-02-02T23:07:15.871Z,92.50
2023-02-02T23:10:21.272Z,92.50
2023-02-02T23:13:23.555Z,92.40
2023-02-02T23:16:25.671Z,92.40
2023-02-02T23:19:27.970Z,92.60
2023-02-02T23:22:32.211Z,92.70
2023-02-02T23:25:34.493Z,92.50
2023-02-02T23:28:36.553Z,92.60
2023-02-02T23:31:38.712Z,92.60
2023-02-02T23:34:40.744Z,92.40
2023-02-02T23:37:42.741Z,92.30
2023-02-02T23:40:45.834Z,92.20
2023-02-02T23:43:49.898Z,92.40
2023-02-02T23:46:53.226Z,92.10
2023-02-02T23:49:55.983Z,92.10
2023-02-02T23:52:58.145Z,91.80
2023-02-02T23:56:00.164Z,91.70
2023-02-02T23:59:02.127Z,91.90
